createdAt,value
2022-12-01T00:01:59.462Z,18.41
2022-12-01T00:05:02.317Z,18.40
2022-12-01T00:08:05.496Z,18.39
2022-12-01T00:11:14.673Z,18.41
2022-12-01T00:14:17.084Z,18.40
2022-12-01T00:17:19.109Z,18.38
2022-12-01T00:20:21.219Z,18.36
2022-12-01T00:23:23.686Z,18.36
2022-12-01T00:26:26.854Z,18.33
2022-12-01T00:29:28.981Z,18.35
2022-12-01T00:32:31.554Z,18.35
2022-12-01T00:35:33.654Z,18.34
2022-12-01T00:38:36.380Z,18.33
2022-12-01T00:41:38.374Z,18.33
2022-12-01T00:44:40.417Z,18.28
2022-12-01T00:47:42.431Z,18.28
2022-12-01T00:50:45.268Z,18.28
2022-12-01T00:53:47.290Z,18.26
2022-12-01T00:56:49.310Z,18.24
2022-12-01T00:59:51.354Z,18.24
2022-12-01T01:02:53.420Z,18.22
2022-12-01T01:05:55.877Z,18.24
2022-12-01T01:08:57.912Z,18.23
2022-12-01T01:12:00.117Z,18.21
2022-12-01T01:15:02.354Z,18.20
2022-12-01T01:18:05.563Z,18.20
2022-12-01T01:21:11.011Z,18.20
2022-12-01T01:24:12.991Z,18.19
2022-12-01T01:27:15.030Z,18.18
2022-12-01T01:30:18.000Z,18.19
2022-12-01T01:33:19.978Z,18.14
2022-12-01T01:36:22.291Z,18.15
2022-12-01T01:39:24.339Z,18.14
2022-12-01T01:42:26.438Z,18.13
2022-12-01T01:45:31.522Z,18.12
2022-12-01T01:48:35.533Z,18.12
2022-12-01T01:51:44.514Z,18.10
2022-12-01T01:54:50.243Z,18.09
2022-12-01T01:57:52.310Z,18.09
2022-12-01T02:00:54.372Z,18.08
2022-12-01T02:03:56.931Z,18.07
2022-12-01T02:06:59.108Z,18.06
2022-12-01T02:10:01.139Z,18.06
2022-12-01T02:13:30.620Z,18.04
2022-12-01T02:17:09.560Z,18.04
2022-12-01T02:20:35.851Z,18.03
2022-12-01T02:24:15.583Z,18.02
2022-12-01T02:27:37.227Z,17.99
2022-12-01T02:30:56.410Z,17.99
2022-12-01T02:34:12.931Z,17.97
2022-12-01T02:37:28.216Z,17.97
2022-12-01T02:40:54.399Z,17.96
2022-12-01T02:44:11.253Z,17.96
2022-12-01T02:47:17.028Z,17.95
2022-12-01T02:50:20.251Z,17.94
2022-12-01T02:53:22.510Z,17.92
2022-12-01T02:56:24.744Z,17.93
2022-12-01T02:59:26.776Z,17.91
2022-12-01T03:02:52.330Z,17.90
2022-12-01T03:06:08.393Z,17.91
2022-12-01T03:09:24.812Z,17.90
2022-12-01T03:12:35.144Z,17.90
2022-12-01T03:15:39.728Z,17.89
2022-12-01T03:18:49.774Z,17.88
2022-12-01T03:22:12.597Z,17.87
2022-12-01T03:25:15.550Z,17.85
2022-12-01T03:28:22.116Z,17.83
2022-12-01T03:31:32.836Z,17.84
2022-12-01T03:34:49.828Z,17.83
2022-12-01T03:37:57.127Z,17.81
2022-12-01T03:41:03.333Z,17.81
2022-12-01T03:44:17.385Z,17.79
2022-12-01T03:47:24.973Z,17.78
2022-12-01T03:50:36.610Z,17.79
2022-12-01T03:54:24.209Z,17.77
2022-12-01T03:57:31.831Z,17.76
2022-12-01T04:00:34.076Z,17.76
2022-12-01T04:03:36.316Z,17.73
2022-12-01T04:06:42.166Z,17.73
2022-12-01T04:09:44.379Z,17.73
2022-12-01T04:12:46.398Z,17.73
2022-12-01T04:15:52.121Z,17.69
2022-12-01T04:18:54.186Z,17.68
2022-12-01T04:21:56.247Z,17.67
2022-12-01T04:24:58.413Z,17.67
2022-12-01T04:28:00.431Z,17.68
2022-12-01T04:31:02.463Z,17.77
2022-12-01T04:34:04.859Z,18.02
2022-12-01T04:37:07.777Z,18.14
2022-12-01T04:40:10.456Z,18.19
2022-12-01T04:43:12.472Z,18.25
2022-12-01T04:46:15.412Z,18.34
2022-12-01T04:49:17.455Z,18.42
2022-12-01T04:52:19.486Z,18.46
2022-12-01T04:55:22.519Z,18.44
2022-12-01T04:58:24.559Z,18.47
2022-12-01T05:01:26.752Z,18.49
2022-12-01T05:04:31.122Z,18.52
2022-12-01T05:07:33.299Z,18.63
2022-12-01T05:10:36.409Z,18.72
2022-12-01T05:13:40.106Z,18.76
2022-12-01T05:16:42.225Z,18.76
2022-12-01T05:20:02.760Z,18.74
2022-12-01T05:23:06.237Z,18.80
2022-12-01T05:26:09.593Z,18.88
2022-12-01T05:29:12.727Z,18.93
2022-12-01T05:32:14.840Z,18.92
2022-12-01T05:35:17.005Z,18.87
2022-12-01T05:38:19.734Z,18.88
2022-12-01T05:41:21.891Z,18.88
2022-12-01T05:44:23.998Z,18.96
2022-12-01T05:47:26.210Z,19.03
2022-12-01T05:50:30.124Z,19.06
2022-12-01T05:53:32.301Z,19.02
2022-12-01T05:56:34.323Z,18.98
2022-12-01T05:59:36.353Z,18.98
2022-12-01T06:02:38.991Z,19.00
2022-12-01T06:05:41.311Z,19.09
2022-12-01T06:08:43.345Z,19.13
2022-12-01T06:11:47.230Z,19.13
2022-12-01T06:14:52.056Z,19.09
2022-12-01T06:17:54.290Z,19.08
2022-12-01T06:20:56.541Z,19.12
2022-12-01T06:23:58.550Z,19.22
2022-12-01T06:27:00.583Z,19.27
2022-12-01T06:30:03.648Z,19.28
2022-12-01T06:33:05.918Z,19.22
2022-12-01T06:36:08.516Z,19.22
2022-12-01T06:39:10.613Z,19.25
2022-12-01T06:42:12.664Z,19.30
2022-12-01T06:45:14.750Z,19.35
2022-12-01T06:48:16.955Z,19.32
2022-12-01T06:51:19.154Z,19.32
2022-12-01T06:54:21.445Z,19.33
2022-12-01T06:57:23.421Z,19.40
2022-12-01T07:00:25.702Z,19.45
2022-12-01T07:03:27.787Z,19.46
2022-12-01T07:06:31.413Z,19.44
2022-12-01T07:09:33.829Z,19.43
2022-12-01T07:12:36.129Z,19.43
2022-12-01T07:15:38.933Z,19.48
2022-12-01T07:18:41.368Z,19.57
2022-12-01T07:21:43.524Z,19.61
2022-12-01T07:24:45.551Z,19.60
2022-12-01T07:27:47.560Z,19.58
2022-12-01T07:30:49.618Z,19.58
2022-12-01T07:33:52.546Z,19.65
2022-12-01T07:36:54.679Z,19.76
2022-12-01T07:39:56.735Z,19.81
2022-12-01T07:42:58.738Z,19.85
2022-12-01T07:46:24.592Z,19.84
2022-12-01T07:49:26.716Z,19.82
2022-12-01T07:52:28.722Z,19.84
2022-12-01T07:55:30.758Z,19.86
2022-12-01T07:58:33.088Z,19.94
2022-12-01T08:01:35.243Z,19.99
2022-12-01T08:04:37.423Z,19.99
2022-12-01T08:07:39.505Z,19.91
2022-12-01T08:10:41.503Z,19.97
2022-12-01T08:13:44.283Z,20.03
2022-12-01T08:16:48.129Z,20.13
2022-12-01T08:19:50.584Z,20.11
2022-12-01T08:22:52.818Z,20.11
2022-12-01T08:25:54.944Z,20.10
2022-12-01T08:28:57.914Z,20.10
2022-12-01T08:32:00.422Z,20.05
2022-12-01T08:35:02.653Z,20.04
2022-12-01T08:38:04.869Z,20.02
2022-12-01T08:41:08.935Z,20.00
2022-12-01T08:44:11.242Z,19.97
2022-12-01T08:47:17.269Z,19.94
2022-12-01T08:50:20.835Z,19.90
2022-12-01T08:53:22.981Z,19.88
2022-12-01T08:56:30.346Z,19.88
2022-12-01T08:59:32.602Z,19.95
2022-12-01T09:02:34.871Z,19.87
2022-12-01T09:05:37.026Z,19.82
2022-12-01T09:08:39.486Z,19.80
2022-12-01T09:11:43.920Z,19.79
2022-12-01T09:14:48.261Z,19.75
2022-12-01T09:17:50.354Z,19.62
2022-12-01T09:20:52.810Z,19.57
2022-12-01T09:23:55.061Z,19.60
2022-12-01T09:26:58.683Z,19.61
2022-12-01T09:30:00.710Z,19.62
2022-12-01T09:33:03.694Z,19.62
2022-12-01T09:36:07.620Z,19.63
2022-12-01T09:39:13.775Z,19.65
2022-12-01T09:42:18.462Z,19.66
2022-12-01T09:45:28.154Z,19.65
2022-12-01T09:48:44.278Z,19.66
2022-12-01T09:51:46.691Z,19.68
2022-12-01T09:54:49.502Z,19.67
2022-12-01T09:57:54.666Z,19.66
2022-12-01T10:00:57.456Z,19.70
2022-12-01T10:04:09.242Z,19.70
2022-12-01T10:07:23.952Z,19.67
2022-12-01T10:10:39.553Z,19.66
2022-12-01T10:13:43.722Z,19.66
2022-12-01T10:17:04.651Z,19.67
2022-12-01T10:20:16.363Z,19.66
2022-12-01T10:23:24.158Z,19.65
2022-12-01T10:26:41.650Z,19.66
2022-12-01T10:29:55.370Z,19.65
2022-12-01T10:33:10.144Z,19.63
2022-12-01T10:36:12.611Z,19.66
2022-12-01T10:39:42.458Z,19.66
2022-12-01T10:42:47.018Z,19.63
2022-12-01T10:45:49.316Z,19.66
2022-12-01T10:48:59.589Z,19.60
2022-12-01T10:52:01.608Z,19.55
2022-12-01T10:55:23.882Z,19.59
2022-12-01T10:58:26.726Z,19.59
2022-12-01T11:01:34.555Z,19.57
2022-12-01T11:04:47.562Z,19.57
2022-12-01T11:07:50.215Z,19.60
2022-12-01T11:10:52.487Z,19.54
2022-12-01T11:13:56.101Z,19.54
2022-12-01T11:17:15.815Z,19.54
2022-12-01T11:20:32.142Z,19.51
2022-12-01T11:23:44.071Z,19.50
2022-12-01T11:26:46.229Z,19.48
2022-12-01T11:29:55.494Z,19.48
2022-12-01T11:33:00.632Z,19.52
2022-12-01T11:36:02.688Z,19.48
2022-12-01T11:39:05.064Z,19.47
2022-12-01T11:42:21.239Z,19.48
2022-12-01T11:45:34.574Z,19.44
2022-12-01T11:48:37.293Z,19.38
2022-12-01T11:51:39.395Z,19.33
2022-12-01T11:54:55.866Z,19.35
2022-12-01T11:58:03.745Z,19.31
2022-12-01T12:01:24.231Z,19.31
2022-12-01T12:04:55.471Z,19.35
2022-12-01T12:08:29.033Z,19.35
2022-12-01T12:11:54.567Z,19.43
2022-12-01T12:15:29.770Z,19.45
2022-12-01T12:19:39.320Z,19.48
2022-12-01T12:23:14.359Z,19.50
2022-12-01T12:26:26.075Z,19.47
2022-12-01T12:29:43.055Z,19.50
2022-12-01T12:33:02.590Z,19.54
2022-12-01T12:36:17.138Z,19.54
2022-12-01T12:39:37.765Z,19.53
2022-12-01T12:43:14.199Z,19.55
2022-12-01T12:46:35.092Z,19.57
2022-12-01T12:49:45.708Z,19.56
2022-12-01T12:52:51.583Z,19.55
2022-12-01T12:55:58.741Z,19.50
2022-12-01T12:59:09.929Z,19.46
2022-12-01T13:02:23.796Z,19.44
2022-12-01T13:05:29.190Z,19.43
2022-12-01T13:08:33.957Z,19.42
2022-12-01T13:12:08.590Z,19.44
2022-12-01T13:15:17.826Z,19.48
2022-12-01T13:18:46.058Z,19.45
2022-12-01T13:21:50.070Z,19.40
2022-12-01T13:24:52.166Z,19.37
2022-12-01T13:27:56.069Z,19.38
2022-12-01T13:31:04.757Z,19.38
2022-12-01T13:34:06.984Z,19.37
2022-12-01T13:37:12.123Z,19.36
2022-12-01T13:40:21.838Z,19.31
2022-12-01T13:43:23.895Z,19.23
2022-12-01T13:46:37.932Z,19.21
2022-12-01T13:49:42.398Z,19.21
2022-12-01T13:52:50.079Z,19.18
2022-12-01T13:56:03.832Z,19.14
2022-12-01T14:00:00.853Z,19.15
2022-12-01T14:03:20.892Z,19.13
2022-12-01T14:06:38.355Z,19.12
2022-12-01T14:09:42.316Z,19.13
2022-12-01T14:12:46.143Z,19.11
2022-12-01T14:15:54.909Z,19.10
2022-12-01T14:18:58.491Z,19.05
2022-12-01T14:22:01.653Z,18.99
2022-12-01T14:25:20.290Z,19.00
2022-12-01T14:29:00.282Z,19.05
2022-12-01T14:32:04.379Z,19.05
2022-12-01T14:35:12.549Z,19.05
2022-12-01T14:38:14.795Z,19.03
2022-12-01T14:41:26.034Z,19.02
2022-12-01T14:44:36.048Z,19.02
2022-12-01T14:47:45.056Z,19.00
2022-12-01T14:51:07.214Z,18.98
2022-12-01T14:54:17.213Z,18.99
2022-12-01T14:57:24.503Z,19.00
2022-12-01T15:00:27.134Z,18.97
2022-12-01T15:03:36.897Z,18.99
2022-12-01T15:06:38.989Z,19.00
2022-12-01T15:09:59.896Z,19.02
2022-12-01T15:13:20.739Z,19.06
2022-12-01T15:16:25.470Z,19.05
2022-12-01T15:19:38.661Z,19.05
2022-12-01T15:22:41.534Z,19.08
2022-12-01T15:25:45.698Z,19.05
2022-12-01T15:28:47.806Z,19.01
2022-12-01T15:31:55.768Z,18.98
2022-12-01T15:35:01.884Z,18.95
2022-12-01T15:38:04.770Z,19.02
2022-12-01T15:44:35.867Z,19.08
2022-12-01T15:47:45.122Z,19.10
2022-12-01T15:50:59.650Z,19.10
2022-12-01T15:54:02.484Z,19.23
2022-12-01T15:57:05.893Z,19.16
2022-12-01T16:00:17.656Z,19.16
2022-12-01T16:03:19.773Z,19.15
2022-12-01T16:06:26.259Z,19.16
2022-12-01T16:09:35.911Z,19.15
2022-12-01T16:12:38.031Z,19.13
2022-12-01T16:15:44.166Z,19.08
2022-12-01T16:19:02.151Z,19.06
2022-12-01T16:22:17.996Z,19.06
2022-12-01T16:25:35.563Z,19.08
2022-12-01T16:28:37.701Z,19.09
2022-12-01T16:31:58.565Z,19.08
2022-12-01T16:35:04.129Z,19.08
2022-12-01T16:38:23.412Z,19.06
2022-12-01T16:41:38.337Z,19.06
2022-12-01T16:44:41.368Z,19.02
2022-12-01T16:47:45.434Z,19.05
2022-12-01T16:50:48.852Z,19.05
2022-12-01T16:53:51.183Z,19.02
2022-12-01T16:56:53.360Z,19.05
2022-12-01T16:59:55.564Z,19.02
2022-12-01T17:02:57.713Z,19.01
2022-12-01T17:06:01.850Z,19.02
2022-12-01T17:09:04.101Z,19.01
2022-12-01T17:12:06.357Z,19.01
2022-12-01T17:15:09.905Z,19.01
2022-12-01T17:18:12.598Z,19.00
2022-12-01T17:21:14.819Z,18.97
2022-12-01T17:24:19.248Z,18.95
2022-12-01T17:27:22.624Z,18.89
2022-12-01T17:30:24.913Z,18.84
2022-12-01T17:33:26.977Z,18.83
2022-12-01T17:36:29.103Z,18.82
2022-12-01T17:39:31.119Z,18.78
2022-12-01T17:42:33.971Z,18.76
2022-12-01T17:45:41.804Z,18.77
2022-12-01T17:48:46.157Z,18.76
2022-12-01T17:51:48.363Z,18.76
2022-12-01T17:54:50.791Z,18.76
2022-12-01T17:57:53.079Z,18.81
2022-12-01T18:00:55.426Z,18.80
2022-12-01T18:03:59.493Z,18.81
2022-12-01T18:07:01.729Z,18.82
2022-12-01T18:10:03.983Z,18.74
2022-12-01T18:13:06.047Z,18.73
2022-12-01T18:16:20.173Z,18.71
2022-12-01T18:19:22.841Z,18.70
2022-12-01T18:22:24.875Z,18.69
2022-12-01T18:25:26.872Z,18.71
2022-12-01T18:28:28.889Z,18.76
2022-12-01T18:31:31.815Z,18.72
2022-12-01T18:34:34.017Z,18.70
2022-12-01T18:37:36.771Z,18.69
2022-12-01T18:40:39.591Z,18.66
2022-12-01T18:43:41.782Z,18.65
2022-12-01T18:46:44.312Z,18.63
2022-12-01T18:49:46.731Z,18.65
2022-12-01T18:52:48.822Z,18.63
2022-12-01T18:55:50.842Z,18.63
2022-12-01T18:58:56.900Z,18.62
2022-12-01T19:02:00.156Z,18.61
2022-12-01T19:05:02.254Z,18.59
2022-12-01T19:08:04.673Z,18.61
2022-12-01T19:11:07.211Z,18.61
2022-12-01T19:14:14.392Z,18.59
2022-12-01T19:17:16.378Z,18.57
2022-12-01T19:20:18.412Z,18.56
2022-12-01T19:23:20.457Z,18.56
2022-12-01T19:26:23.327Z,18.57
2022-12-01T19:29:25.403Z,18.56
2022-12-01T19:32:27.452Z,18.56
2022-12-01T19:35:29.533Z,18.55
2022-12-01T19:38:31.534Z,18.54
2022-12-01T19:41:33.547Z,18.54
2022-12-01T19:44:35.611Z,18.53
2022-12-01T19:47:39.242Z,18.52
2022-12-01T19:50:41.266Z,18.50
2022-12-01T19:53:43.332Z,18.51
2022-12-01T19:56:45.619Z,18.49
2022-12-01T19:59:47.702Z,18.50
2022-12-01T20:02:50.105Z,18.51
2022-12-01T20:05:52.171Z,18.50
2022-12-01T20:08:56.604Z,18.50
2022-12-01T20:11:58.646Z,18.48
2022-12-01T20:15:00.730Z,18.49
2022-12-01T20:18:02.783Z,18.49
2022-12-01T20:21:10.687Z,18.47
2022-12-01T20:24:16.315Z,18.49
2022-12-01T20:27:18.351Z,18.48
2022-12-01T20:30:20.624Z,18.46
2022-12-01T20:33:22.957Z,18.44
2022-12-01T20:36:26.116Z,18.44
2022-12-01T20:39:31.408Z,18.43
2022-12-01T20:42:33.471Z,18.44
2022-12-01T20:45:35.584Z,18.41
2022-12-01T20:48:37.641Z,18.42
2022-12-01T20:51:39.890Z,18.40
2022-12-01T20:54:42.447Z,18.41
2022-12-01T20:57:44.569Z,18.41
2022-12-01T21:00:46.662Z,18.39
2022-12-01T21:03:48.943Z,18.40
2022-12-01T21:06:51.142Z,18.38
2022-12-01T21:09:53.133Z,18.37
2022-12-01T21:13:18.894Z,18.39
2022-12-01T21:16:27.179Z,18.37
2022-12-01T21:19:50.174Z,18.37
2022-12-01T21:22:53.561Z,18.36
2022-12-01T21:25:56.270Z,18.35
2022-12-01T21:29:00.511Z,18.35
2022-12-01T21:32:14.695Z,18.36
2022-12-01T21:35:27.388Z,18.35
2022-12-01T21:38:32.364Z,18.34
2022-12-01T21:41:34.613Z,18.33
2022-12-01T21:44:39.273Z,18.33
2022-12-01T21:47:41.759Z,18.33
2022-12-01T21:50:47.036Z,18.32
2022-12-01T21:53:55.557Z,18.29
2022-12-01T21:56:58.657Z,18.30
2022-12-01T22:00:32.830Z,18.29
2022-12-01T22:03:42.224Z,18.29
2022-12-01T22:06:48.239Z,18.28
2022-12-01T22:09:50.482Z,18.26
2022-12-01T22:12:52.543Z,18.27
2022-12-01T22:15:55.158Z,18.26
2022-12-01T22:18:59.653Z,18.23
2022-12-01T22:22:10.496Z,18.24
2022-12-01T22:25:29.403Z,18.25
2022-12-01T22:28:31.394Z,18.22
2022-12-01T22:31:34.599Z,18.23
2022-12-01T22:34:36.934Z,18.21
2022-12-01T22:37:45.266Z,18.18
2022-12-01T22:41:09.021Z,18.20
2022-12-01T22:44:13.265Z,18.18
2022-12-01T22:47:15.677Z,18.15
2022-12-01T22:50:30.791Z,18.17
2022-12-01T22:53:32.842Z,18.15
2022-12-01T22:56:40.194Z,18.14
2022-12-01T22:59:43.747Z,18.15
2022-12-01T23:02:48.520Z,18.13
2022-12-01T23:05:56.006Z,18.12
2022-12-01T23:08:58.030Z,18.14
2022-12-01T23:12:12.271Z,18.12
2022-12-01T23:15:40.469Z,18.11
2022-12-01T23:18:42.541Z,18.11
2022-12-01T23:21:44.829Z,18.10
2022-12-01T23:24:46.865Z,18.07
2022-12-01T23:27:50.424Z,18.08
2022-12-01T23:30:55.790Z,18.06
2022-12-01T23:33:57.839Z,18.06
2022-12-01T23:36:59.893Z,18.06
2022-12-01T23:40:08.219Z,18.05
2022-12-01T23:43:20.710Z,18.04
2022-12-01T23:46:24.794Z,18.02
2022-12-01T23:49:31.515Z,18.02
2022-12-01T23:52:36.457Z,18.02
2022-12-01T23:55:39.120Z,17.99
2022-12-01T23:58:42.159Z,17.99
